Time;durP1;ratioP1;P1;durP2;ratioP2;P2;SDS_P1;SDS_P2;PMS_P1;PMS_P2;Temp;Humidity;BMP_temperature;BMP_pressure;BME280_temperature;BME280_humidity;BME280_pressure;Samples;Min_cycle;Max_cycle;Signal;HPM_P1;HPM_P2
2022/11/04 00:02:30;;;;;;;6.53;3.60;;;;;;;18.38;64.48;95862.25;10548368;28;20027;-31
2022/11/04 00:12:51;;;;;;;8.30;4.88;;;;;;;18.31;65.92;95855.56;10552532;28;20031;-31
2022/11/04 00:17:52;;;;;;;5.80;4.03;;;;;;;18.41;65.94;95887.56;10550406;28;20410;-30
2022/11/04 00:33:35;;;;;;;3.92;2.97;;;;;;;18.36;64.55;95871.56;10562591;28;20550;-30
2022/11/04 00:38:36;;;;;;;3.70;3.10;;;;;;;18.36;64.30;95874.09;10556357;28;20076;-31
2022/11/04 00:43:36;;;;;;;5.53;3.63;;;;;;;18.32;64.76;95873.31;10552485;28;20039;-30
2022/11/04 00:48:36;;;;;;;5.97;3.67;;;;;;;18.33;64.76;95858.94;10558366;28;20036;-33
2022/11/04 00:53:37;;;;;;;7.13;3.30;;;;;;;18.35;64.66;95867.38;10564081;28;20046;-30
2022/11/04 00:58:37;;;;;;;6.47;3.03;;;;;;;18.35;64.70;95869.91;10555203;28;20040;-30
2022/11/04 01:03:38;;;;;;;5.23;3.00;;;;;;;18.35;64.82;95862.28;10562087;28;20035;-31
2022/11/04 01:08:39;;;;;;;5.47;2.67;;;;;;;18.33;64.88;95858.94;10565119;28;20625;-30
2022/11/04 01:13:40;;;;;;;9.68;4.38;;;;;;;18.34;64.63;95873.28;10567500;28;20027;-30
2022/11/04 01:18:40;;;;;;;3.85;3.05;;;;;;;18.36;65.62;95881.72;10563655;28;20043;-31
2022/11/04 01:23:43;;;;;;;5.63;3.50;;;;;;;18.36;66.21;95885.09;10566083;28;20031;-31
2022/11/04 01:28:44;;;;;;;6.30;3.40;;;;;;;18.40;65.74;95885.91;10555993;28;20032;-31
2022/11/04 01:33:44;;;;;;;5.25;3.17;;;;;;;18.43;65.05;95886.66;10560029;28;20032;-30
2022/11/04 01:38:45;;;;;;;4.00;2.80;;;;;;;18.36;64.57;95879.16;10563067;28;20024;-31
2022/11/04 01:43:58;;;;;;;6.13;3.38;;;;;;;18.36;64.73;95874.09;10561773;28;20032;-32
2022/11/04 01:49:29;;;;;;;7.10;3.17;;;;;;;18.33;65.00;95858.94;10565583;28;20058;-31
2022/11/04 01:54:31;;;;;;;4.00;3.00;;;;;;;18.33;64.80;95848.81;10554709;28;20127;-31
2022/11/04 01:59:37;;;;;;;5.38;2.92;;;;;;;18.33;64.91;95848.81;10566069;28;20084;-30
2022/11/04 02:04:38;;;;;;;;;;;;;;;18.34;65.10;95853.03;10559885;28;20044;-30
2022/11/04 02:09:40;;;;;;;6.05;3.25;;;;;;;18.34;65.29;95865.69;10549177;28;19920;-30
2022/11/04 02:14:42;;;;;;;6.20;2.95;;;;;;;18.33;65.16;95853.88;10559863;28;20032;-30
2022/11/04 02:19:54;;;;;;;6.50;3.05;;;;;;;18.31;64.97;95850.50;10560057;28;20362;-31
2022/11/04 02:25:13;;;;;;;5.70;3.13;;;;;;;18.32;66.10;95844.63;10559381;28;20040;-32
2022/11/04 02:30:15;;;;;;;6.20;3.10;;;;;;;18.34;66.35;95837.81;10559152;28;20131;-31
2022/11/04 02:35:45;;;;;;;10.68;3.08;;;;;;;18.37;65.85;95845.38;10562241;28;20497;-31
2022/11/04 02:41:17;;;;;;;9.05;3.35;;;;;;;18.37;65.00;95846.22;10557434;28;20032;-30
2022/11/04 02:46:44;;;;;;;7.15;2.70;;;;;;;18.31;64.86;95845.44;10558517;28;20035;-30
2022/11/04 02:51:57;;;;;;;5.63;3.03;;;;;;;18.29;64.81;95834.47;10562487;28;20508;-31
2022/11/04 02:57:01;;;;;;;4.40;3.03;;;;;;;18.29;64.83;95834.47;10562243;28;20055;-30
2022/11/04 03:02:06;;;;;;;5.00;2.60;;;;;;;18.29;64.99;95837.00;10562527;28;20087;-31
2022/11/04 03:07:10;;;;;;;9.20;3.05;;;;;;;18.31;64.95;95845.44;10563591;28;20028;-30
2022/11/04 03:12:16;;;;;;;5.47;3.03;;;;;;;18.30;64.64;95823.50;10567924;28;20034;-30
2022/11/04 03:17:25;;;;;;;7.83;2.77;;;;;;;18.29;64.93;95832.81;10557939;28;20402;-30
2022/11/04 03:22:28;;;;;;;7.15;3.05;;;;;;;18.29;64.97;95827.75;10562760;28;20031;-31
2022/11/04 03:27:44;;;;;;;5.25;2.75;;;;;;;18.30;64.89;95833.63;10559009;28;20032;-31
2022/11/04 03:33:04;;;;;;;5.93;2.80;;;;;;;18.26;66.07;95816.78;10555096;28;20089;-31
2022/11/04 03:38:05;;;;;;;8.10;2.92;;;;;;;18.32;66.09;95822.63;10559490;28;20119;-31
2022/11/04 03:43:19;;;;;;;5.75;3.58;;;;;;;18.32;65.83;95804.88;10570944;28;20061;-31
2022/11/04 03:48:22;;;;;;;5.18;2.53;;;;;;;18.36;65.15;95818.34;10557481;28;20040;-30
2022/11/04 03:53:24;;;;;;;5.47;2.63;;;;;;;18.30;64.66;95826.03;10562804;28;20038;-31
2022/11/04 03:58:36;;;;;;;5.32;2.50;;;;;;;18.27;64.90;95819.31;10560641;28;20031;-31
2022/11/04 04:03:49;;;;;;;4.75;2.72;;;;;;;18.25;64.81;95825.25;10549327;28;20039;-30
2022/11/04 04:08:54;;;;;;;3.95;2.38;;;;;;;18.22;64.65;95810.91;10558332;28;20032;-31
2022/11/04 04:14:04;;;;;;;7.72;2.80;;;;;;;18.29;65.13;95831.94;10559646;28;20040;-31
2022/11/04 04:19:13;;;;;;;5.88;2.80;;;;;;;18.29;65.08;95825.22;10561726;28;20473;-31
2022/11/04 04:29:39;;;;;;;5.18;2.75;;;;;;;18.27;64.99;95818.44;10560110;28;20111;-30
2022/11/04 04:34:40;;;;;;;6.20;2.58;;;;;;;18.26;64.94;95807.47;10558629;28;20035;-31
2022/11/04 04:45:05;;;;;;;5.10;2.60;;;;;;;18.30;65.89;95791.41;10558232;28;20028;-31
2022/11/04 04:50:07;;;;;;;5.28;2.33;;;;;;;18.33;65.71;95782.94;10566041;28;20454;-30
2022/11/04 04:55:08;;;;;;;3.30;2.40;;;;;;;18.34;65.15;95779.53;10563525;28;20039;-31
2022/11/04 05:00:14;;;;;;;5.28;2.63;;;;;;;18.28;64.66;95764.38;10568762;28;20129;-31
2022/11/04 05:05:14;;;;;;;4.90;1.90;;;;;;;18.25;64.80;95745.00;10570557;28;20038;-31
2022/11/04 05:10:16;;;;;;;6.20;2.30;;;;;;;18.26;64.66;95750.91;10565288;28;20042;-31
2022/11/04 05:15:16;;;;;;;3.47;2.38;;;;;;;18.26;64.97;95745.84;10567884;28;20271;-30
2022/11/04 05:20:17;;;;;;;4.50;2.20;;;;;;;18.24;64.93;95742.50;10564556;28;20035;-31
2022/11/04 05:25:17;;;;;;;4.03;2.07;;;;;;;18.25;65.06;95729.78;10565702;28;20705;-31
2022/11/04 05:30:17;;;;;;;5.13;2.50;;;;;;;18.26;64.78;95730.63;10563425;28;20039;-31
2022/11/04 05:35:18;;;;;;;3.30;2.10;;;;;;;18.26;64.99;95731.47;10562410;28;20477;-30
2022/11/04 05:40:18;;;;;;;6.23;2.60;;;;;;;18.29;64.77;95731.47;10567147;28;20394;-31
2022/11/04 05:45:18;;;;;;;16.93;2.53;;;;;;;18.24;64.95;95738.25;10558081;28;20032;-30
2022/11/04 05:50:19;;;;;;;10.43;2.27;;;;;;;18.26;65.26;95733.16;10564777;28;20297;-30
2022/11/04 05:55:19;;;;;;;11.40;3.70;;;;;;;18.37;64.20;95718.66;10564490;28;20672;-30
2022/11/04 06:00:20;;;;;;;5.70;3.40;;;;;;;18.34;64.07;95709.41;10560674;28;20427;-30
2022/11/04 06:05:20;;;;;;;5.00;2.60;;;;;;;18.36;63.77;95717.00;10563641;28;20364;-30
2022/11/04 06:10:21;;;;;;;4.43;2.13;;;;;;;18.35;63.75;95710.25;10560785;28;20036;-30
2022/11/04 06:15:21;;;;;;;8.18;2.30;;;;;;;18.33;64.00;95712.00;10564762;28;20047;-32
2022/11/04 06:20:22;;;;;;;5.22;2.17;;;;;;;18.33;64.18;95732.25;10563087;28;20039;-30
2022/11/04 06:25:22;;;;;;;7.45;2.30;;;;;;;18.31;64.02;95736.50;10565049;28;20051;-30
2022/11/04 06:30:22;;;;;;;4.80;2.30;;;;;;;18.29;63.82;95726.41;10563683;28;20401;-30
2022/11/04 06:35:23;;;;;;;4.30;2.10;;;;;;;18.29;63.78;95738.19;10568498;28;20368;-31
2022/11/04 06:40:23;;;;;;;4.33;1.60;;;;;;;18.29;63.83;95749.19;10562830;28;20024;-30
2022/11/04 06:45:23;;;;;;;4.70;2.70;;;;;;;18.28;63.41;95744.13;10560749;28;20164;-31
2022/11/04 06:50:24;;;;;;;2.73;2.20;;;;;;;18.25;63.44;95749.25;10563584;28;20481;-31
2022/11/04 06:55:24;;;;;;;3.87;2.00;;;;;;;18.12;61.28;95756.19;10562546;28;20096;-33
2022/11/04 07:00:25;;;;;;;3.90;1.92;;;;;;;18.20;59.30;95753.53;10564717;28;20023;-30
2022/11/04 07:05:25;;;;;;;2.63;1.77;;;;;;;18.16;59.30;95757.78;10558309;28;20027;-31
2022/11/04 07:10:26;;;;;;;4.60;1.77;;;;;;;18.15;58.96;95742.63;10568455;28;20041;-31
2022/11/04 07:15:26;;;;;;;3.72;2.25;;;;;;;18.05;58.99;95736.00;10566467;28;20294;-30
2022/11/04 07:20:27;;;;;;;3.28;1.95;;;;;;;18.17;60.14;95731.59;10565725;28;20035;-30
2022/11/04 07:25:28;;;;;;;4.13;1.83;;;;;;;18.16;60.74;95741.78;10563032;28;20085;-31
2022/11/04 07:30:29;;;;;;;2.75;1.73;;;;;;;18.12;60.92;95722.41;10556322;28;20478;-30
2022/11/04 07:35:29;;;;;;;7.35;1.92;;;;;;;18.17;61.20;95730.78;10564845;28;20033;-31
2022/11/04 07:40:33;;;;;;;2.00;1.42;;;;;;;18.18;61.20;95719.78;10561464;28;20020;-31
2022/11/04 07:45:33;;;;;;;5.30;1.70;;;;;;;18.19;61.40;95729.06;10555855;28;20032;-30
2022/11/04 07:50:38;;;;;;;3.10;1.65;;;;;;;18.23;61.89;95720.53;10560859;28;20019;-31
2022/11/04 07:55:38;;;;;;;6.10;1.63;;;;;;;18.17;62.14;95685.19;10565781;28;20036;-30
2022/11/04 08:00:38;;;;;;;4.40;1.80;;;;;;;18.24;62.36;95707.84;10561776;28;20023;-32
2022/11/04 08:05:39;;;;;;;4.97;1.47;;;;;;;18.31;61.99;95698.47;10557285;28;20036;-31
2022/11/04 08:10:39;;;;;;;3.00;1.45;;;;;;;18.35;62.23;95695.06;10559465;28;20332;-31
2022/11/04 08:15:40;;;;;;;7.53;1.90;;;;;;;18.35;62.33;95679.84;10560970;28;20032;-30
2022/11/04 08:20:45;;;;;;;4.13;1.47;;;;;;;18.34;62.03;95686.59;10557766;28;20058;-30
2022/11/04 08:25:45;;;;;;;5.80;1.83;;;;;;;18.34;62.05;95685.78;10558307;28;20345;-30
2022/11/04 08:31:02;;;;;;;3.13;1.60;;;;;;;18.34;62.50;95680.72;10559288;28;20032;-30
2022/11/04 08:36:15;;;;;;;5.65;2.08;;;;;;;18.34;62.42;95675.66;10562104;28;20393;-30
2022/11/04 08:41:18;;;;;;;4.30;1.50;;;;;;;18.33;62.67;95676.50;10558353;28;20505;-29
2022/11/04 08:46:19;;;;;;;3.90;1.60;;;;;;;18.31;62.45;95693.41;10558548;28;20040;-30
2022/11/04 08:51:22;;;;;;;2.97;1.20;;;;;;;18.34;62.76;95690.84;10559002;28;20028;-31
2022/11/04 08:56:29;;;;;;;6.05;2.33;;;;;;;18.27;62.25;95687.56;10555957;28;20123;-30
2022/11/04 09:01:32;;;;;;;3.55;1.38;;;;;;;18.32;62.46;95701.00;10557079;28;20045;-31
2022/11/04 09:06:38;;;;;;;2.40;1.60;;;;;;;18.32;62.60;95702.72;10555582;28;20036;-31
2022/11/04 09:11:40;;;;;;;2.95;1.48;;;;;;;18.37;62.61;95703.47;10565733;28;20515;-31
2022/11/04 09:16:41;;;;;;;1.98;1.50;;;;;;;18.38;62.73;95707.66;10553943;28;20036;-30
2022/11/04 09:21:41;;;;;;;1.98;1.25;;;;;;;18.38;62.81;95702.59;10552394;28;20028;-30
2022/11/04 09:26:43;;;;;;;2.55;1.30;;;;;;;18.32;61.57;95702.72;10553210;28;20054;-31
2022/11/04 09:31:43;;;;;;;4.10;1.20;;;;;;;18.31;62.20;95708.63;10555187;27;20058;-31
2022/11/04 09:36:45;;;;;;;4.00;1.33;;;;;;;18.29;62.27;95708.66;10566920;28;20034;-31
2022/11/04 09:41:54;;;;;;;3.60;1.52;;;;;;;18.27;62.93;95702.75;10570010;27;20756;-30
2022/11/04 09:46:59;;;;;;;2.55;2.35;;;;;;;18.25;63.08;95698.56;10550898;28;20417;-31
2022/11/04 09:52:03;;;;;;;2.28;1.20;;;;;;;18.25;62.83;95693.50;10554653;28;20521;-30
2022/11/04 09:57:04;;;;;;;9.55;2.10;;;;;;;18.35;62.99;95705.19;10562599;28;20493;-31
2022/11/04 10:02:17;;;;;;;8.90;2.40;;;;;;;18.34;63.01;95716.19;10562108;28;20039;-30
2022/11/04 10:07:41;;;;;;;10.65;2.22;;;;;;;18.29;60.10;95711.19;10561550;28;20036;-30
2022/11/04 10:13:09;;;;;;;7.32;1.92;;;;;;;18.32;62.99;95705.25;10562491;28;20046;-30
2022/11/04 10:18:12;;;;;;;7.38;2.60;;;;;;;18.36;63.85;95701.78;10563106;28;20521;-30
2022/11/04 10:23:31;;;;;;;6.75;2.25;;;;;;;18.38;63.88;95702.59;10562199;28;20417;-31
2022/11/04 10:28:42;;;;;;;8.30;2.22;;;;;;;18.36;63.38;95709.41;10555194;28;20039;-31
2022/11/04 10:33:47;;;;;;;10.63;2.65;;;;;;;18.36;63.54;95704.34;10555049;28;20032;-30
2022/11/04 10:38:51;;;;;;;13.20;3.25;;;;;;;18.36;63.51;95697.56;10569941;28;20027;-31
2022/11/04 10:43:57;;;;;;;9.75;2.70;;;;;;;18.34;63.88;95694.22;10563233;28;20433;-30
2022/11/04 10:49:12;;;;;;;7.60;2.37;;;;;;;18.29;62.77;95680.78;10552338;28;20468;-31
2022/11/04 10:54:13;;;;;;;8.43;2.45;;;;;;;18.35;62.67;95684.91;10558610;28;20031;-30
2022/11/04 10:59:54;;;;;;;6.55;2.03;;;;;;;18.31;63.63;95688.34;10550323;27;20020;-31
2022/11/04 11:05:12;;;;;;;3.97;1.85;;;;;;;18.34;61.76;95688.31;10439493;28;20063;-30
2022/11/04 11:10:23;;;;;;;2.03;1.13;;;;;;;18.35;60.22;95678.13;10563101;28;20035;-31
2022/11/04 11:15:24;;;;;;;3.05;1.80;;;;;;;18.40;60.28;95686.53;10553768;28;20032;-31
2022/11/04 11:20:26;;;;;;;5.57;3.13;;;;;;;18.41;59.99;95682.31;10558297;28;20028;-31
2022/11/04 11:25:30;;;;;;;6.20;1.95;;;;;;;18.44;62.57;95684.78;10566153;28;20306;-31
2022/11/04 11:30:35;;;;;;;5.03;1.98;;;;;;;18.43;62.42;95686.47;10553994;28;20036;-30
2022/11/04 11:35:43;;;;;;;3.33;1.88;;;;;;;18.44;60.59;95685.63;10559123;28;20489;-30
2022/11/04 11:40:45;;;;;;;5.32;1.25;;;;;;;18.44;59.78;95689.84;10546746;28;20032;-31
2022/11/04 11:45:48;;;;;;;4.60;1.52;;;;;;;18.45;60.40;95691.50;10559276;28;20046;-31
2022/11/04 11:50:58;;;;;;;7.20;1.38;;;;;;;18.45;60.14;95692.38;10554834;28;20494;-30
2022/11/04 11:56:24;;;;;;;3.47;1.70;;;;;;;18.44;60.09;95680.56;10560499;28;20036;-30
2022/11/04 12:01:33;;;;;;;5.90;1.70;;;;;;;18.45;60.29;95681.38;10559432;28;20027;-31
2022/11/04 12:06:56;;;;;;;3.75;1.30;;;;;;;18.45;60.32;95683.91;10560967;28;20064;-31
2022/11/04 12:12:27;;;;;;;4.30;1.73;;;;;;;18.47;60.18;95672.88;10551140;28;20031;-31
2022/11/04 12:17:40;;;;;;;3.33;1.42;;;;;;;18.48;60.68;95681.31;10564898;28;20036;-30
2022/11/04 12:22:55;;;;;;;2.78;1.50;;;;;;;18.44;60.37;95677.16;10556701;28;20092;-32
2022/11/04 12:28:14;;;;;;;2.75;1.45;;;;;;;18.45;60.46;95686.44;10553658;28;20066;-31
2022/11/04 12:33:40;;;;;;;4.47;1.70;;;;;;;18.44;62.28;95679.72;10555534;28;20262;-31
2022/11/04 12:39:04;;;;;;;9.03;1.90;;;;;;;18.44;62.56;95685.63;10509150;28;20093;-30
2022/11/04 12:44:19;;;;;;;3.63;1.55;;;;;;;18.48;60.73;95691.44;10547450;28;20377;-31
2022/11/04 12:49:38;;;;;;;2.80;1.17;;;;;;;18.43;60.29;95694.06;10560408;28;20038;-31
2022/11/04 12:54:59;;;;;;;2.00;1.40;;;;;;;18.42;60.02;95701.72;10561697;28;20028;-31
2022/11/04 13:00:12;;;;;;;1.75;1.40;;;;;;;18.43;60.09;95703.38;10559256;28;20028;-30
2022/11/04 13:05:40;;;;;;;2.65;1.42;;;;;;;18.41;60.44;95700.84;10555702;28;20034;-30
2022/11/04 13:10:48;;;;;;;2.95;1.25;;;;;;;18.41;60.07;95700.03;10572039;27;20036;-32
2022/11/04 13:15:54;;;;;;;2.70;1.10;;;;;;;18.41;60.11;95705.09;10554694;28;20032;-31
2022/11/04 13:21:02;;;;;;;2.17;1.27;;;;;;;18.39;60.05;95706.81;10558156;28;20043;-31
2022/11/04 13:26:08;;;;;;;2.13;1.42;;;;;;;18.39;60.06;95704.28;10569369;28;20031;-31
2022/11/04 13:31:12;;;;;;;3.97;1.57;;;;;;;18.40;59.95;95694.13;10558503;28;20048;-31
2022/11/04 13:36:27;;;;;;;2.60;1.48;;;;;;;18.38;61.20;95702.59;10561159;28;20050;-31
2022/11/04 13:42:12;;;;;;;2.67;1.38;;;;;;;18.39;62.43;95709.34;10552371;28;20417;-30
2022/11/04 13:47:19;;;;;;;3.85;1.70;;;;;;;18.39;62.17;95711.88;10537500;28;20036;-30
2022/11/04 13:52:22;;;;;;;1.65;1.10;;;;;;;18.40;60.23;95709.31;10558460;28;20478;-30
2022/11/04 13:57:46;;;;;;;3.38;1.30;;;;;;;18.36;60.59;95709.41;10557764;28;20023;-30
2022/11/04 14:02:47;;;;;;;1.45;1.00;;;;;;;18.37;60.82;95711.06;10555117;28;20128;-31
2022/11/04 14:08:00;;;;;;;2.05;1.52;;;;;;;18.38;60.36;95721.19;10557656;28;20154;-30
2022/11/04 14:13:28;;;;;;;1.83;1.40;;;;;;;18.38;61.23;95720.34;10556337;28;20514;-31
2022/11/04 14:18:38;;;;;;;4.00;1.60;;;;;;;18.37;61.26;95729.66;10553693;28;20092;-32
2022/11/04 14:23:46;;;;;;;6.45;1.70;;;;;;;18.35;62.28;95718.69;10568517;28;20039;-31
2022/11/04 14:29:06;;;;;;;3.15;1.63;;;;;;;18.36;61.59;95727.13;10561085;28;20032;-31
2022/11/04 14:34:33;;;;;;;2.55;1.10;;;;;;;18.31;61.78;95737.34;10553688;27;20036;-31
2022/11/04 14:39:39;;;;;;;4.67;1.47;;;;;;;18.33;61.86;95742.41;10563727;28;20024;-30
2022/11/04 14:44:44;;;;;;;7.30;2.23;;;;;;;18.31;62.27;95739.03;10553336;28;20588;-30
2022/11/04 14:49:58;;;;;;;6.00;1.50;;;;;;;18.41;62.55;95750.72;10555358;28;20305;-30
2022/11/04 14:55:26;;;;;;;3.40;1.75;;;;;;;18.41;62.49;95756.59;10561177;28;20063;-31
2022/11/04 15:00:33;;;;;;;4.63;1.23;;;;;;;18.31;61.68;95739.88;10562965;28;20039;-31
2022/11/04 15:05:36;;;;;;;;;;;;;;;18.36;62.48;95768.53;10561086;28;20078;-30
2022/11/04 15:10:36;;;;;;;5.63;1.85;;;;;;;18.32;62.84;95781.25;10565883;28;20331;-30
2022/11/04 15:15:47;;;;;;;4.70;1.30;;;;;;;18.34;62.76;95779.53;10561976;28;20290;-30
2022/11/04 15:20:51;;;;;;;2.55;1.00;;;;;;;18.35;61.58;95781.22;10558711;28;20051;-31
2022/11/04 15:25:52;;;;;;;2.35;1.40;;;;;;;18.28;63.08;95785.50;10566702;28;20032;-30
2022/11/04 15:31:21;;;;;;;3.28;1.20;;;;;;;18.34;62.36;95792.22;10561682;28;20035;-30
2022/11/04 15:36:23;;;;;;;3.13;1.00;;;;;;;18.32;61.73;95797.28;10555126;28;20044;-31
2022/11/04 15:47:13;;;;;;;2.40;1.20;;;;;;;18.30;61.89;95803.22;10557219;28;20063;-30
2022/11/04 15:52:16;;;;;;;3.25;1.52;;;;;;;18.35;63.35;95816.69;10554914;28;20386;-30
2022/11/04 15:57:20;;;;;;;2.13;1.30;;;;;;;18.34;63.99;95817.53;10559850;28;20481;-29
2022/11/04 16:02:26;;;;;;;2.35;1.27;;;;;;;18.36;62.97;95824.28;10555785;28;20035;-31
2022/11/04 16:07:29;;;;;;;;;;;;;;;18.36;61.04;95831.03;10554101;28;20387;-31
2022/11/04 16:12:36;;;;;;;1.98;0.90;;;;;;;18.31;62.45;95835.31;10555571;28;19994;-30
2022/11/04 16:17:42;;;;;;;;;;;;;;;18.31;62.01;95851.34;10558044;28;20402;-31
2022/11/04 16:22:43;;;;;;;2.42;1.00;;;;;;;18.30;62.34;95861.50;10556505;28;19923;-31
2022/11/04 16:27:44;;;;;;;1.80;0.80;;;;;;;18.29;62.42;95867.41;10561262;28;20056;-30
2022/11/04 16:32:50;;;;;;;3.25;1.30;;;;;;;18.31;61.75;95884.28;10560856;28;20478;-31
2022/11/04 16:37:52;;;;;;;3.28;1.23;;;;;;;18.33;61.83;95885.09;10560843;28;20027;-30
2022/11/04 16:42:52;;;;;;;3.45;1.33;;;;;;;18.32;61.96;95885.16;10563104;28;20035;-31
2022/11/04 16:47:53;;;;;;;1.67;1.00;;;;;;;18.33;61.23;95891.88;10569224;28;20024;-30
2022/11/04 16:52:54;;;;;;;1.33;0.98;;;;;;;18.31;61.71;95903.72;10563017;28;20039;-30
2022/11/04 16:57:58;;;;;;;2.75;1.15;;;;;;;18.35;60.79;95920.56;10567631;28;20096;-31
2022/11/04 17:03:01;;;;;;;1.63;1.10;;;;;;;18.34;61.42;95924.78;10540849;27;20035;-30
2022/11/04 17:08:02;;;;;;;2.17;0.88;;;;;;;18.38;61.98;95938.25;10564801;28;20935;-32
2022/11/04 17:13:03;;;;;;;3.22;1.45;;;;;;;18.23;60.83;95918.13;10566661;28;20039;-30
2022/11/04 17:18:03;;;;;;;3.50;1.17;;;;;;;18.42;60.46;95950.06;10570869;28;20398;-30
2022/11/04 17:23:04;;;;;;;2.58;1.27;;;;;;;18.38;60.87;95954.31;10566221;28;20035;-31
2022/11/04 17:28:04;;;;;;;1.60;1.17;;;;;;;18.40;60.74;95967.81;10567728;28;20109;-30
2022/11/04 17:33:05;;;;;;;1.93;1.33;;;;;;;18.39;60.79;95975.41;10564101;28;20280;-30
2022/11/04 17:38:05;;;;;;;2.63;1.05;;;;;;;18.35;60.54;95972.06;10568266;28;20357;-31
2022/11/04 17:48:25;;;;;;;2.78;1.35;;;;;;;18.43;60.71;95997.34;10559130;28;20028;-32
2022/11/04 17:53:26;;;;;;;3.30;1.50;;;;;;;18.42;60.61;96000.75;10563622;28;20281;-30
2022/11/04 17:58:29;;;;;;;2.50;1.33;;;;;;;18.42;60.70;96008.34;10564471;28;20081;-30
2022/11/04 18:03:29;;;;;;;1.73;1.20;;;;;;;18.44;60.72;96019.31;10563564;28;20039;-31
2022/11/04 18:08:30;;;;;;;1.50;1.10;;;;;;;18.44;62.58;96024.38;10560473;28;20035;-30
2022/11/04 18:13:31;;;;;;;2.17;1.38;;;;;;;18.43;62.41;96037.91;10568977;28;20027;-33
2022/11/04 18:18:31;;;;;;;1.58;1.20;;;;;;;18.40;60.86;96037.94;10563982;28;20028;-31
2022/11/04 18:23:31;;;;;;;3.77;1.47;;;;;;;18.43;60.71;96048.03;10566539;28;20039;-31
2022/11/04 18:28:32;;;;;;;1.93;1.20;;;;;;;18.43;60.69;96064.06;10560602;28;20043;-31
2022/11/04 18:33:33;;;;;;;2.25;0.90;;;;;;;18.41;61.00;96072.56;10532971;28;20035;-31
2022/11/04 18:38:33;;;;;;;2.75;1.10;;;;;;;18.39;61.00;96074.25;10561661;28;20050;-31
2022/11/04 18:43:34;;;;;;;3.78;2.03;;;;;;;18.40;60.83;96088.63;10559033;28;20408;-31
2022/11/04 18:48:36;;;;;;;3.55;1.00;;;;;;;18.41;60.86;96095.38;10559305;28;20034;-30
2022/11/04 18:53:36;;;;;;;1.92;1.20;;;;;;;18.41;60.71;96095.38;10557457;28;20032;-31
2022/11/04 18:58:38;;;;;;;2.47;1.00;;;;;;;18.42;60.63;96102.13;10559941;28;20478;-30
2022/11/04 19:03:39;;;;;;;3.08;1.33;;;;;;;18.40;61.35;96108.91;10561396;28;20024;-30
2022/11/04 19:08:39;;;;;;;5.00;1.60;;;;;;;18.39;60.75;96112.28;10558532;28;20036;-30
2022/11/04 19:13:40;;;;;;;3.00;0.88;;;;;;;18.39;60.77;96123.25;10567478;28;20363;-31
2022/11/04 19:18:40;;;;;;;4.28;1.15;;;;;;;18.37;62.29;96124.13;10562568;28;20040;-30
2022/11/04 19:23:41;;;;;;;3.13;1.27;;;;;;;18.37;62.63;96141.88;10564713;28;20032;-31
2022/11/04 19:28:50;;;;;;;1.20;1.00;;;;;;;18.43;60.62;96139.28;10483284;28;20471;-30
2022/11/04 19:33:52;;;;;;;2.72;1.35;;;;;;;18.41;60.51;96154.50;10479908;28;20566;-28
2022/11/04 19:38:54;;;;;;;2.88;1.35;;;;;;;18.39;60.98;96168.88;10474579;28;20211;-28
2022/11/04 19:43:54;;;;;;;2.45;1.35;;;;;;;18.39;60.82;96173.09;10463742;28;20384;-29
2022/11/04 19:48:56;;;;;;;2.23;1.27;;;;;;;18.39;60.45;96175.63;10466803;28;20044;-28
2022/11/04 19:53:56;;;;;;;1.77;1.10;;;;;;;18.37;60.57;96180.72;10470678;28;20295;-28
2022/11/04 19:58:56;;;;;;;4.03;2.80;;;;;;;18.36;60.72;96193.41;10473051;28;20487;-28
2022/11/04 20:03:57;;;;;;;1.50;1.00;;;;;;;18.38;61.08;96191.69;10471356;28;20395;-27
2022/11/04 20:09:03;;;;;;;4.32;1.30;;;;;;;18.34;60.94;96200.19;10467115;28;20323;-28
2022/11/04 20:14:03;;;;;;;4.20;1.20;;;;;;;18.35;61.14;96201.84;10468640;28;20037;-29
2022/11/04 20:19:04;;;;;;;1.53;1.00;;;;;;;18.35;61.29;96212.81;10469897;28;20048;-29
2022/11/04 20:24:07;;;;;;;3.33;1.08;;;;;;;18.35;60.83;96224.66;10473453;28;20494;-28
2022/11/04 20:29:07;;;;;;;7.00;1.75;;;;;;;18.34;62.52;96225.53;10465034;28;20115;-29
2022/11/04 20:34:10;;;;;;;2.63;1.40;;;;;;;18.34;62.09;96230.59;10466268;28;20596;-28
2022/11/04 20:39:16;;;;;;;1.50;1.05;;;;;;;18.36;60.96;96228.88;10448586;28;20040;-28
2022/11/04 20:44:17;;;;;;;2.28;1.20;;;;;;;18.35;60.77;96242.41;10441312;28;20048;-28
2022/11/04 20:49:17;;;;;;;1.80;0.80;;;;;;;18.36;60.70;96254.22;10442160;28;20510;-27
2022/11/04 20:54:18;;;;;;;3.22;1.13;;;;;;;18.32;60.89;96257.66;10440166;28;20033;-28
2022/11/04 20:59:18;;;;;;;2.75;1.08;;;;;;;18.32;60.86;96268.59;10433707;28;20040;-29
2022/11/04 21:04:20;;;;;;;1.35;0.90;;;;;;;18.31;61.02;96274.53;10442552;28;20029;-27
2022/11/04 21:09:20;;;;;;;1.77;0.75;;;;;;;18.33;61.31;96289.72;10437793;28;20279;-29
2022/11/04 21:14:21;;;;;;;1.88;1.10;;;;;;;18.31;61.21;96293.94;10444203;28;20040;-28
2022/11/04 21:19:21;;;;;;;3.87;1.00;;;;;;;18.31;61.12;96297.34;10439311;28;20043;-24
2022/11/04 21:24:22;;;;;;;1.38;0.82;;;;;;;18.30;60.93;96300.72;10443350;28;20713;-28
2022/11/04 21:29:22;;;;;;;1.90;1.15;;;;;;;18.30;61.37;96308.31;10437775;28;20041;-27
2022/11/04 21:34:23;;;;;;;2.40;1.23;;;;;;;18.33;60.85;96307.47;10433916;28;20385;-28
2022/11/04 21:39:24;;;;;;;1.88;1.33;;;;;;;18.34;62.45;96319.28;10439614;28;20041;-28
2022/11/04 21:44:24;;;;;;;2.58;1.00;;;;;;;18.33;61.80;96323.50;10436941;28;20032;-28
2022/11/04 21:49:25;;;;;;;1.90;1.10;;;;;;;18.32;61.08;96326.88;10439233;28;20049;-28
2022/11/04 21:54:26;;;;;;;1.47;1.03;;;;;;;18.31;61.35;96330.28;10435391;28;20040;-28
2022/11/04 21:59:26;;;;;;;1.60;0.93;;;;;;;18.31;61.25;96331.97;10436104;28;20110;-28
2022/11/04 22:04:26;;;;;;;1.33;0.93;;;;;;;18.27;61.65;96335.34;10437377;28;20503;-28
2022/11/04 22:09:27;;;;;;;2.27;1.20;;;;;;;18.28;61.70;96347.16;10433169;28;20052;-28
2022/11/04 22:14:28;;;;;;;2.77;1.40;;;;;;;18.28;61.45;96348.00;10441221;28;20296;-29
2022/11/04 22:19:28;;;;;;;2.35;0.82;;;;;;;18.27;61.53;96353.09;10436758;28;20033;-28
2022/11/04 22:24:29;;;;;;;4.30;0.90;;;;;;;18.25;61.86;96355.59;10441296;28;20047;-28
2022/11/04 22:29:29;;;;;;;1.67;1.00;;;;;;;18.26;61.87;96356.47;10431808;28;20138;-28
2022/11/04 22:34:30;;;;;;;1.65;0.90;;;;;;;18.23;62.05;96353.94;10435431;28;20589;-28
2022/11/04 22:39:30;;;;;;;1.53;1.03;;;;;;;18.23;61.79;96364.06;10439204;28;20088;-27
2022/11/04 22:44:30;;;;;;;1.50;1.30;;;;;;;18.28;62.08;96368.28;10434588;28;20037;-27
2022/11/04 22:49:31;;;;;;;1.40;1.07;;;;;;;18.32;62.30;96374.22;10439205;28;20068;-28
2022/11/04 22:54:31;;;;;;;1.30;0.70;;;;;;;18.26;61.56;96371.66;10436197;28;20087;-28
2022/11/04 22:59:32;;;;;;;1.95;1.20;;;;;;;18.29;61.59;96376.72;10433777;28;20037;-28
2022/11/04 23:04:32;;;;;;;1.00;0.87;;;;;;;18.26;61.22;96374.22;10438740;28;20036;-27
2022/11/04 23:18:40;;;;;;;1.90;1.20;;;;;;;18.28;60.64;96377.56;10434040;28;20060;-28
2022/11/04 23:20:14;;;;;;;1.88;1.10;;;;;;;18.31;61.23;96380.09;10434500;28;20059;-27
2022/11/04 23:25:14;;;;;;;1.38;1.10;;;;;;;18.32;60.95;96389.41;10439128;28;20032;-30
2022/11/04 23:30:21;;;;;;;1.60;0.80;;;;;;;18.34;60.77;96393.59;10428638;28;20041;-28
2022/11/04 23:42:14;;;;;;;3.03;1.17;;;;;;;18.34;60.72;96387.72;10426467;28;20008;-28
